sensor_id;sensor_type;location;lat;lon;timestamp;pressure;altitude;pressure_sealevel;temperature;humidity
2549;BME280;1284;53.520;10.248;2023-02-28T00:01:27;102427.78;;;5.53;73.03
2549;BME280;1284;53.520;10.248;2023-02-28T00:03:52;102422.94;;;5.60;72.94
2549;BME280;1284;53.520;10.248;2023-02-28T00:06:18;102428.31;;;5.55;73.48
2549;BME280;1284;53.520;10.248;2023-02-28T00:08:43;102427.03;;;5.42;73.37
2549;BME280;1284;53.520;10.248;2023-02-28T00:11:11;102430.03;;;5.30;73.14
2549;BME280;1284;53.520;10.248;2023-02-28T00:13:42;102418.81;;;5.33;73.17
2549;BME280;1284;53.520;10.248;2023-02-28T00:16:11;102420.34;;;5.44;73.34
2549;BME280;1284;53.520;10.248;2023-02-28T00:18:38;102422.03;;;5.35;72.57
2549;BME280;1284;53.520;10.248;2023-02-28T00:21:04;102420.34;;;5.44;72.72
2549;BME280;1284;53.520;10.248;2023-02-28T00:23:30;102428.38;;;5.44;72.74
2549;BME280;1284;53.520;10.248;2023-02-28T00:25:55;102417.19;;;5.37;73.01
2549;BME280;1284;53.520;10.248;2023-02-28T00:28:21;102421.25;;;5.25;72.99
2549;BME280;1284;53.520;10.248;2023-02-28T00:30:47;102421.63;;;5.08;74.28
2549;BME280;1284;53.520;10.248;2023-02-28T00:33:13;102421.94;;;4.97;74.08
2549;BME280;1284;53.520;10.248;2023-02-28T00:35:38;102417.69;;;4.91;74.40
2549;BME280;1284;53.520;10.248;2023-02-28T00:38:04;102424.66;;;4.77;74.56
2549;BME280;1284;53.520;10.248;2023-02-28T00:40:29;102422.28;;;4.65;75.52
2549;BME280;1284;53.520;10.248;2023-02-28T00:42:55;102425.78;;;4.61;76.26
2549;BME280;1284;53.520;10.248;2023-02-28T00:45:20;102421.78;;;4.53;76.38
2549;BME280;1284;53.520;10.248;2023-02-28T00:47:46;102435.94;;;4.43;76.93
2549;BME280;1284;53.520;10.248;2023-02-28T00:50:16;102443.94;;;4.43;77.26
2549;BME280;1284;53.520;10.248;2023-02-28T00:52:42;102444.50;;;4.35;77.47
2549;BME280;1284;53.520;10.248;2023-02-28T00:55:07;102439.41;;;4.44;77.67
2549;BME280;1284;53.520;10.248;2023-02-28T00:57:33;102438.91;;;4.37;78.13
2549;BME280;1284;53.520;10.248;2023-02-28T00:59:59;102440.25;;;4.29;78.05
2549;BME280;1284;53.520;10.248;2023-02-28T01:02:24;102436.25;;;4.12;78.28
2549;BME280;1284;53.520;10.248;2023-02-28T01:04:51;102435.19;;;4.08;79.11
2549;BME280;1284;53.520;10.248;2023-02-28T01:07:17;102441.03;;;4.00;79.60
2549;BME280;1284;53.520;10.248;2023-02-28T01:09:45;102437.84;;;4.08;79.08
2549;BME280;1284;53.520;10.248;2023-02-28T01:12:11;102437.03;;;4.07;79.46
2549;BME280;1284;53.520;10.248;2023-02-28T01:14:36;102439.47;;;3.99;79.60
2549;BME280;1284;53.520;10.248;2023-02-28T01:17:02;102440.78;;;3.96;79.72
2549;BME280;1284;53.520;10.248;2023-02-28T01:19:28;102442.91;;;3.99;80.11
2549;BME280;1284;53.520;10.248;2023-02-28T01:21:53;102443.44;;;3.91;79.76
2549;BME280;1284;53.520;10.248;2023-02-28T01:24:19;102441.81;;;3.80;80.48
2549;BME280;1284;53.520;10.248;2023-02-28T01:26:44;102443.19;;;3.93;80.16
2549;BME280;1284;53.520;10.248;2023-02-28T01:29:10;102445.03;;;4.07;79.28
2549;BME280;1284;53.520;10.248;2023-02-28T01:31:35;102449.03;;;4.05;79.14
2549;BME280;1284;53.520;10.248;2023-02-28T01:34:01;102444.22;;;3.92;79.79
2549;BME280;1284;53.520;10.248;2023-02-28T01:36:30;102447.41;;;3.84;80.67
2549;BME280;1284;53.520;10.248;2023-02-28T01:38:56;102442.63;;;3.71;80.64
2549;BME280;1284;53.520;10.248;2023-02-28T01:41:24;102441.81;;;3.60;81.08
2549;BME280;1284;53.520;10.248;2023-02-28T01:46:17;102442.88;;;3.54;81.73
2549;BME280;1284;53.520;10.248;2023-02-28T01:48:54;102439.66;;;3.62;81.14
2549;BME280;1284;53.520;10.248;2023-02-28T01:51:33;102435.91;;;3.38;81.21
2549;BME280;1284;53.520;10.248;2023-02-28T01:54:03;102444.38;;;3.30;81.94
2549;BME280;1284;53.520;10.248;2023-02-28T01:56:33;102437.50;;;3.49;81.54
2549;BME280;1284;53.520;10.248;2023-02-28T01:59:04;102431.41;;;3.53;80.88
2549;BME280;1284;53.520;10.248;2023-02-28T02:01:30;102433.53;;;3.51;80.96
2549;BME280;1284;53.520;10.248;2023-02-28T02:04:00;102437.81;;;3.57;81.07
2549;BME280;1284;53.520;10.248;2023-02-28T02:06:34;102429.53;;;3.64;80.27
2549;BME280;1284;53.520;10.248;2023-02-28T02:09:01;102433.78;;;3.55;80.08
2549;BME280;1284;53.520;10.248;2023-02-28T02:11:27;102434.56;;;3.45;80.44
2549;BME280;1284;53.520;10.248;2023-02-28T02:25:48;102420.94;;;3.17;81.86
2549;BME280;1284;53.520;10.248;2023-02-28T02:37:51;102421.09;;;2.95;82.44
2549;BME280;1284;53.520;10.248;2023-02-28T02:40:23;102422.41;;;2.88;82.60
2549;BME280;1284;53.520;10.248;2023-02-28T02:43:08;102428.97;;;2.75;82.98
2549;BME280;1284;53.520;10.248;2023-02-28T02:45:45;102427.94;;;2.76;83.35
2549;BME280;1284;53.520;10.248;2023-02-28T02:48:15;102426.09;;;2.77;83.13
2549;BME280;1284;53.520;10.248;2023-02-28T02:50:47;102428.50;;;2.83;83.02
2549;BME280;1284;53.520;10.248;2023-02-28T02:53:15;102426.84;;;2.77;83.38
2549;BME280;1284;53.520;10.248;2023-02-28T02:55:44;102421.38;;;2.94;82.84
2549;BME280;1284;53.520;10.248;2023-02-28T02:58:17;102421.03;;;2.80;82.60
2549;BME280;1284;53.520;10.248;2023-02-28T03:00:51;102414.09;;;2.74;82.99
2549;BME280;1284;53.520;10.248;2023-02-28T03:03:19;102428.22;;;2.80;83.01
2549;BME280;1284;53.520;10.248;2023-02-28T03:05:57;102419.91;;;2.66;83.15
2549;BME280;1284;53.520;10.248;2023-02-28T03:08:24;102415.84;;;2.53;83.19
2549;BME280;1284;53.520;10.248;2023-02-28T03:10:52;102417.16;;;2.51;83.95
2549;BME280;1284;53.520;10.248;2023-02-28T03:16:35;102416.06;;;2.47;84.39
2549;BME280;1284;53.520;10.248;2023-02-28T03:27:24;102412.84;;;2.45;84.56
2549;BME280;1284;53.520;10.248;2023-02-28T03:30:03;102420.13;;;2.23;84.56
2549;BME280;1284;53.520;10.248;2023-02-28T03:32:35;102421.84;;;2.34;84.75
2549;BME280;1284;53.520;10.248;2023-02-28T03:35:15;102424.59;;;2.49;84.33
2549;BME280;1284;53.520;10.248;2023-02-28T03:37:50;102422.13;;;2.42;84.31
2549;BME280;1284;53.520;10.248;2023-02-28T03:40:21;102425.03;;;2.36;83.82
2549;BME280;1284;53.520;10.248;2023-02-28T03:42:52;102417.91;;;2.41;83.73
2549;BME280;1284;53.520;10.248;2023-02-28T03:45:20;102432.13;;;2.25;84.17
2549;BME280;1284;53.520;10.248;2023-02-28T03:48:22;102428.44;;;2.31;84.56
2549;BME280;1284;53.520;10.248;2023-02-28T03:50:53;102436.75;;;2.40;84.30
2549;BME280;1284;53.520;10.248;2023-02-28T03:53:27;102431.28;;;2.15;84.31
2549;BME280;1284;53.520;10.248;2023-02-28T03:55:59;102444.38;;;1.95;85.20
2549;BME280;1284;53.520;10.248;2023-02-28T03:58:34;102436.97;;;2.02;85.07
2549;BME280;1284;53.520;10.248;2023-02-28T04:01:09;102429.63;;;2.09;85.68
2549;BME280;1284;53.520;10.248;2023-02-28T04:06:03;102428.63;;;2.20;85.18
2549;BME280;1284;53.520;10.248;2023-02-28T04:08:29;102426.13;;;2.03;84.83
2549;BME280;1284;53.520;10.248;2023-02-28T04:11:00;102433.75;;;1.95;85.73
2549;BME280;1284;53.520;10.248;2023-02-28T04:13:27;102435.78;;;2.19;85.72
2549;BME280;1284;53.520;10.248;2023-02-28T04:15:52;102436.41;;;2.26;83.57
2549;BME280;1284;53.520;10.248;2023-02-28T04:18:18;102430.72;;;2.13;84.84
2549;BME280;1284;53.520;10.248;2023-02-28T04:20:43;102438.47;;;2.19;84.82
2549;BME280;1284;53.520;10.248;2023-02-28T04:23:08;102440.09;;;2.25;83.71
2549;BME280;1284;53.520;10.248;2023-02-28T04:25:34;102434.41;;;2.12;84.22
2549;BME280;1284;53.520;10.248;2023-02-28T04:27:59;102430.63;;;2.03;84.97
2549;BME280;1284;53.520;10.248;2023-02-28T04:33:11;102427.72;;;2.04;84.89
2549;BME280;1284;53.520;10.248;2023-02-28T04:35:36;102430.75;;;1.86;84.99
2549;BME280;1284;53.520;10.248;2023-02-28T04:38:02;102430.00;;;1.91;85.66
2549;BME280;1284;53.520;10.248;2023-02-28T04:40:27;102436.69;;;1.98;85.44
2549;BME280;1284;53.520;10.248;2023-02-28T04:42:53;102435.66;;;1.99;85.09
2549;BME280;1284;53.520;10.248;2023-02-28T04:45:18;102437.50;;;1.99;84.98
2549;BME280;1284;53.520;10.248;2023-02-28T04:47:44;102431.72;;;2.07;84.85
2549;BME280;1284;53.520;10.248;2023-02-28T04:50:10;102426.28;;;1.92;84.80
2549;BME280;1284;53.520;10.248;2023-02-28T04:52:35;102441.47;;;1.96;84.88
2549;BME280;1284;53.520;10.248;2023-02-28T04:55:01;102436.16;;;1.96;84.27
2549;BME280;1284;53.520;10.248;2023-02-28T05:00:13;102442.25;;;1.43;85.74
2549;BME280;1284;53.520;10.248;2023-02-28T05:02:42;102440.94;;;1.41;87.11
2549;BME280;1284;53.520;10.248;2023-02-28T05:05:08;102444.31;;;1.36;87.37
2549;BME280;1284;53.520;10.248;2023-02-28T05:07:33;102444.69;;;1.45;87.56
2549;BME280;1284;53.520;10.248;2023-02-28T05:09:59;102451.28;;;1.42;87.51
2549;BME280;1284;53.520;10.248;2023-02-28T05:12:24;102442.88;;;1.50;86.99
2549;BME280;1284;53.520;10.248;2023-02-28T05:14:50;102456.63;;;1.47;87.36
2549;BME280;1284;53.520;10.248;2023-02-28T05:17:15;102450.78;;;1.45;86.88
2549;BME280;1284;53.520;10.248;2023-02-28T05:19:41;102450.78;;;1.45;86.85
2549;BME280;1284;53.520;10.248;2023-02-28T05:24:37;102445.38;;;1.35;87.29
2549;BME280;1284;53.520;10.248;2023-02-28T05:27:03;102448.59;;;1.37;86.87
2549;BME280;1284;53.520;10.248;2023-02-28T05:29:28;102450.13;;;1.33;86.77
2549;BME280;1284;53.520;10.248;2023-02-28T05:31:54;102454.34;;;1.29;87.20
2549;BME280;1284;53.520;10.248;2023-02-28T05:34:19;102460.63;;;1.45;86.72
2549;BME280;1284;53.520;10.248;2023-02-28T05:36:45;102454.94;;;1.36;86.85
2549;BME280;1284;53.520;10.248;2023-02-28T05:39:10;102450.72;;;1.40;87.14
2549;BME280;1284;53.520;10.248;2023-02-28T05:41:39;102450.19;;;1.38;86.47
2549;BME280;1284;53.520;10.248;2023-02-28T05:44:05;102445.69;;;1.17;86.89
2549;BME280;1284;53.520;10.248;2023-02-28T05:46:30;102457.03;;;1.13;87.52
2549;BME280;1284;53.520;10.248;2023-02-28T05:48:56;102470.72;;;1.26;87.40
2549;BME280;1284;53.520;10.248;2023-02-28T05:51:23;102467.78;;;1.23;87.19
2549;BME280;1284;53.520;10.248;2023-02-28T05:53:48;102456.72;;;1.31;87.17
2549;BME280;1284;53.520;10.248;2023-02-28T05:56:14;102455.38;;;1.28;86.73
2549;BME280;1284;53.520;10.248;2023-02-28T05:58:40;102457.41;;;1.21;87.15
2549;BME280;1284;53.520;10.248;2023-02-28T06:03:46;102468.94;;;1.32;86.83
2549;BME280;1284;53.520;10.248;2023-02-28T06:06:11;102476.41;;;1.13;87.11
2549;BME280;1284;53.520;10.248;2023-02-28T06:08:37;102475.00;;;1.06;87.06
2549;BME280;1284;53.520;10.248;2023-02-28T06:11:03;102474.25;;;1.10;87.58
2549;BME280;1284;53.520;10.248;2023-02-28T06:13:29;102472.16;;;1.12;86.83
2549;BME280;1284;53.520;10.248;2023-02-28T06:15:55;102468.19;;;1.15;87.15
2549;BME280;1284;53.520;10.248;2023-02-28T06:18:20;102471.34;;;1.12;87.18
2549;BME280;1284;53.520;10.248;2023-02-28T06:20:52;102478.88;;;0.98;87.19
2549;BME280;1284;53.520;10.248;2023-02-28T06:23:20;102476.75;;;0.78;87.65
2549;BME280;1284;53.520;10.248;2023-02-28T06:25:46;102480.97;;;0.79;88.85
2549;BME280;1284;53.520;10.248;2023-02-28T06:28:11;102483.63;;;0.96;88.57
2549;BME280;1284;53.520;10.248;2023-02-28T06:30:38;102492.25;;;0.86;88.40
2549;BME280;1284;53.520;10.248;2023-02-28T06:33:04;102487.19;;;0.85;88.78
2549;BME280;1284;53.520;10.248;2023-02-28T06:35:30;102495.94;;;1.07;87.81
2549;BME280;1284;53.520;10.248;2023-02-28T06:37:56;102485.47;;;0.96;88.28
2549;BME280;1284;53.520;10.248;2023-02-28T06:40:21;102490.84;;;1.01;87.76
2549;BME280;1284;53.520;10.248;2023-02-28T06:42:47;102496.25;;;0.89;88.84
2549;BME280;1284;53.520;10.248;2023-02-28T06:45:12;102492.34;;;0.75;88.61
2549;BME280;1284;53.520;10.248;2023-02-28T06:47:39;102494.22;;;0.58;89.72
2549;BME280;1284;53.520;10.248;2023-02-28T06:50:06;102483.41;;;0.81;89.87
2549;BME280;1284;53.520;10.248;2023-02-28T06:52:33;102486.19;;;0.91;88.97
2549;BME280;1284;53.520;10.248;2023-02-28T06:55:02;102491.94;;;0.83;89.56
2549;BME280;1284;53.520;10.248;2023-02-28T06:57:32;102495.34;;;1.00;89.18
2549;BME280;1284;53.520;10.248;2023-02-28T06:59:59;102487.75;;;1.09;88.71
2549;BME280;1284;53.520;10.248;2023-02-28T07:02:25;102497.06;;;1.11;88.43
2549;BME280;1284;53.520;10.248;2023-02-28T07:04:51;102496.66;;;1.19;88.54
2549;BME280;1284;53.520;10.248;2023-02-28T07:07:16;102492.81;;;1.32;88.14
2549;BME280;1284;53.520;10.248;2023-02-28T07:09:42;102496.53;;;1.31;88.39
2549;BME280;1284;53.520;10.248;2023-02-28T07:12:07;102505.72;;;1.23;89.42
2549;BME280;1284;53.520;10.248;2023-02-28T07:14:33;102499.59;;;1.23;89.72
2549;BME280;1284;53.520;10.248;2023-02-28T07:16:58;102496.94;;;1.23;89.33
2549;BME280;1284;53.520;10.248;2023-02-28T07:19:23;102504.84;;;1.18;89.48
2549;BME280;1284;53.520;10.248;2023-02-28T07:21:49;102504.09;;;1.22;90.41
2549;BME280;1284;53.520;10.248;2023-02-28T07:24:14;102515.69;;;1.38;89.97
2549;BME280;1284;53.520;10.248;2023-02-28T07:26:41;102508.13;;;1.46;89.63
2549;BME280;1284;53.520;10.248;2023-02-28T07:29:07;102509.03;;;1.57;88.88
2549;BME280;1284;53.520;10.248;2023-02-28T07:31:32;102504.59;;;1.62;89.54
2549;BME280;1284;53.520;10.248;2023-02-28T07:33:58;102502.91;;;1.78;89.12
2549;BME280;1284;53.520;10.248;2023-02-28T07:36:24;102497.59;;;2.05;88.47
2549;BME280;1284;53.520;10.248;2023-02-28T07:38:50;102509.81;;;2.06;88.75
2549;BME280;1284;53.520;10.248;2023-02-28T07:41:18;102496.88;;;2.14;88.87
2549;BME280;1284;53.520;10.248;2023-02-28T07:43:44;102498.00;;;2.23;88.35
2549;BME280;1284;53.520;10.248;2023-02-28T07:46:12;102503.94;;;2.30;88.58
2549;BME280;1284;53.520;10.248;2023-02-28T07:48:40;102506.53;;;2.25;88.73
2549;BME280;1284;53.520;10.248;2023-02-28T07:51:06;102513.16;;;2.59;88.17
2549;BME280;1284;53.520;10.248;2023-02-28T07:53:32;102515.28;;;2.94;87.31
2549;BME280;1284;53.520;10.248;2023-02-28T07:55:59;102507.47;;;3.29;85.95
2549;BME280;1284;53.520;10.248;2023-02-28T07:58:27;102508.47;;;3.85;83.69
2549;BME280;1284;53.520;10.248;2023-02-28T08:00:53;102511.91;;;3.86;82.65
2549;BME280;1284;53.520;10.248;2023-02-28T08:03:19;102520.22;;;4.09;83.27
2549;BME280;1284;53.520;10.248;2023-02-28T08:05:45;102518.38;;;4.20;81.14
2549;BME280;1284;53.520;10.248;2023-02-28T08:08:11;102515.41;;;4.51;80.17
2549;BME280;1284;53.520;10.248;2023-02-28T08:10:36;102514.59;;;4.81;79.25
2549;BME280;1284;53.520;10.248;2023-02-28T08:13:02;102513.25;;;4.79;77.72
2549;BME280;1284;53.520;10.248;2023-02-28T08:15:27;102526.63;;;4.74;77.43
2549;BME280;1284;53.520;10.248;2023-02-28T08:17:53;102530.34;;;4.88;78.21
2549;BME280;1284;53.520;10.248;2023-02-28T08:20:21;102525.69;;;5.23;76.87
2549;BME280;1284;53.520;10.248;2023-02-28T08:22:47;102523.03;;;5.77;75.81
2549;BME280;1284;53.520;10.248;2023-02-28T08:25:13;102530.31;;;6.15;74.95
2549;BME280;1284;53.520;10.248;2023-02-28T08:27:38;102539.47;;;6.43;73.18
2549;BME280;1284;53.520;10.248;2023-02-28T08:30:04;102538.47;;;6.68;71.69
2549;BME280;1284;53.520;10.248;2023-02-28T08:32:32;102534.59;;;6.79;71.58
2549;BME280;1284;53.520;10.248;2023-02-28T08:34:57;102535.09;;;7.09;70.73
2549;BME280;1284;53.520;10.248;2023-02-28T08:37:23;102534.00;;;7.34;68.37
2549;BME280;1284;53.520;10.248;2023-02-28T08:39:49;102541.59;;;7.69;65.48
2549;BME280;1284;53.520;10.248;2023-02-28T08:42:14;102536.91;;;7.80;64.15
2549;BME280;1284;53.520;10.248;2023-02-28T08:44:40;102539.00;;;8.01;63.20
2549;BME280;1284;53.520;10.248;2023-02-28T08:47:06;102543.91;;;8.13;62.38
2549;BME280;1284;53.520;10.248;2023-02-28T08:49:32;102539.00;;;8.39;60.47
2549;BME280;1284;53.520;10.248;2023-02-28T08:51:57;102554.38;;;8.65;59.24
2549;BME280;1284;53.520;10.248;2023-02-28T08:54:23;102548.69;;;8.85;57.55
2549;BME280;1284;53.520;10.248;2023-02-28T08:56:49;102549.34;;;8.77;56.11
2549;BME280;1284;53.520;10.248;2023-02-28T09:02:01;102543.94;;;9.09;55.51
2549;BME280;1284;53.520;10.248;2023-02-28T09:04:26;102551.09;;;9.14;54.96
2549;BME280;1284;53.520;10.248;2023-02-28T09:06:52;102552.50;;;9.39;53.59
2549;BME280;1284;53.520;10.248;2023-02-28T09:09:17;102561.53;;;9.70;53.00
2549;BME280;1284;53.520;10.248;2023-02-28T09:11:42;102556.06;;;9.61;52.13
2549;BME280;1284;53.520;10.248;2023-02-28T09:14:08;102552.75;;;9.78;52.42
2549;BME280;1284;53.520;10.248;2023-02-28T09:16:34;102558.56;;;10.07;52.54
2549;BME280;1284;53.520;10.248;2023-02-28T09:19:00;102560.38;;;10.56;51.07
2549;BME280;1284;53.520;10.248;2023-02-28T09:21:27;102559.22;;;10.48;50.20
2549;BME280;1284;53.520;10.248;2023-02-28T09:23:52;102560.63;;;10.46;50.11
2549;BME280;1284;53.520;10.248;2023-02-28T09:26:21;102563.44;;;10.63;49.88
2549;BME280;1284;53.520;10.248;2023-02-28T09:28:48;102565.34;;;10.62;50.00
2549;BME280;1284;53.520;10.248;2023-02-28T09:31:16;102562.66;;;10.62;49.19
2549;BME280;1284;53.520;10.248;2023-02-28T09:33:46;102568.22;;;10.97;49.65
2549;BME280;1284;53.520;10.248;2023-02-28T09:36:12;102571.16;;;11.09;48.43
2549;BME280;1284;53.520;10.248;2023-02-28T09:38:37;102561.78;;;11.06;48.43
2549;BME280;1284;53.520;10.248;2023-02-28T09:41:11;102565.69;;;11.31;47.88
2549;BME280;1284;53.520;10.248;2023-02-28T09:43:40;102566.91;;;11.25;48.16
2549;BME280;1284;53.520;10.248;2023-02-28T09:46:31;102563.50;;;11.02;47.07
2549;BME280;1284;53.520;10.248;2023-02-28T09:48:58;102566.69;;;10.51;45.75
2549;BME280;1284;53.520;10.248;2023-02-28T09:51:37;102574.75;;;10.51;47.52
2549;BME280;1284;53.520;10.248;2023-02-28T09:54:05;102569.19;;;10.48;47.25
2549;BME280;1284;53.520;10.248;2023-02-28T09:56:39;102572.41;;;10.80;45.99
2549;BME280;1284;53.520;10.248;2023-02-28T10:01:49;102572.28;;;10.55;43.74
2549;BME280;1284;53.520;10.248;2023-02-28T10:07:17;102573.78;;;10.47;44.02
2549;BME280;1284;53.520;10.248;2023-02-28T10:09:46;102573.72;;;10.61;44.52
2549;BME280;1284;53.520;10.248;2023-02-28T10:12:16;102574.03;;;10.81;43.14
2549;BME280;1284;53.520;10.248;2023-02-28T10:14:45;102569.16;;;10.92;43.75
2549;BME280;1284;53.520;10.248;2023-02-28T10:17:28;102562.69;;;10.71;43.86
2549;BME280;1284;53.520;10.248;2023-02-28T10:20:02;102567.56;;;10.91;44.27
2549;BME280;1284;53.520;10.248;2023-02-28T10:22:53;102567.03;;;11.11;43.79
2549;BME280;1284;53.520;10.248;2023-02-28T10:25:25;102564.53;;;11.15;43.79
2549;BME280;1284;53.520;10.248;2023-02-28T10:28:15;102568.53;;;11.26;43.64
2549;BME280;1284;53.520;10.248;2023-02-28T10:30:50;102569.44;;;11.21;43.09
2549;BME280;1284;53.520;10.248;2023-02-28T10:33:24;102572.63;;;11.15;42.80
2549;BME280;1284;53.520;10.248;2023-02-28T10:35:52;102566.06;;;10.76;42.26
2549;BME280;1284;53.520;10.248;2023-02-28T10:38:26;102562.78;;;10.88;42.28
2549;BME280;1284;53.520;10.248;2023-02-28T10:41:03;102563.25;;;10.59;42.55
2549;BME280;1284;53.520;10.248;2023-02-28T10:43:30;102564.97;;;10.77;42.98
2549;BME280;1284;53.520;10.248;2023-02-28T10:46:21;102558.88;;;10.41;43.23
2549;BME280;1284;53.520;10.248;2023-02-28T10:49:13;102563.16;;;10.64;43.82
2549;BME280;1284;53.520;10.248;2023-02-28T10:51:40;102568.56;;;10.95;44.49
2549;BME280;1284;53.520;10.248;2023-02-28T10:54:15;102555.16;;;11.21;44.19
2549;BME280;1284;53.520;10.248;2023-02-28T10:56:42;102553.97;;;11.35;43.66
2549;BME280;1284;53.520;10.248;2023-02-28T11:01:46;102563.50;;;11.50;42.23
2549;BME280;1284;53.520;10.248;2023-02-28T11:04:35;102561.78;;;11.45;43.32
2549;BME280;1284;53.520;10.248;2023-02-28T11:07:11;102562.66;;;11.24;43.47
2549;BME280;1284;53.520;10.248;2023-02-28T11:09:46;102566.53;;;11.40;43.63
2549;BME280;1284;53.520;10.248;2023-02-28T11:12:28;102555.16;;;11.21;44.26
2549;BME280;1284;53.520;10.248;2023-02-28T11:15:00;102564.38;;;11.20;44.01
2549;BME280;1284;53.520;10.248;2023-02-28T11:17:29;102557.59;;;11.31;43.02
2549;BME280;1284;53.520;10.248;2023-02-28T11:20:01;102566.00;;;11.29;42.71
2549;BME280;1284;53.520;10.248;2023-02-28T11:22:37;102561.41;;;11.30;42.20
2549;BME280;1284;53.520;10.248;2023-02-28T11:25:09;102560.16;;;11.36;42.97
2549;BME280;1284;53.520;10.248;2023-02-28T11:27:45;102565.00;;;11.17;43.42
2549;BME280;1284;53.520;10.248;2023-02-28T11:30:33;102557.59;;;11.31;43.67
2549;BME280;1284;53.520;10.248;2023-02-28T11:32:58;102560.03;;;11.49;42.30
2549;BME280;1284;53.520;10.248;2023-02-28T11:35:41;102549.06;;;11.46;43.35
2549;BME280;1284;53.520;10.248;2023-02-28T11:38:12;102548.88;;;11.34;43.35
2549;BME280;1284;53.520;10.248;2023-02-28T11:46:13;102543.59;;;11.20;44.08
2549;BME280;1284;53.520;10.248;2023-02-28T11:49:35;102551.69;;;11.29;43.76
2549;BME280;1284;53.520;10.248;2023-02-28T11:51:56;102536.28;;;11.12;43.24
2549;BME280;1284;53.520;10.248;2023-02-28T11:54:40;102535.19;;;11.22;43.32
2549;BME280;1284;53.520;10.248;2023-02-28T12:03:15;102525.81;;;11.19;44.17
2549;BME280;1284;53.520;10.248;2023-02-28T12:19:34;102498.03;;;11.10;41.64
2549;BME280;1284;53.520;10.248;2023-02-28T12:27:36;102490.75;;;11.11;41.71
2549;BME280;1284;53.520;10.248;2023-02-28T12:30:13;102487.09;;;11.15;42.91
2549;BME280;1284;53.520;10.248;2023-02-28T12:32:49;102482.84;;;11.23;42.34
2549;BME280;1284;53.520;10.248;2023-02-28T12:35:21;102483.50;;;11.28;41.58
2549;BME280;1284;53.520;10.248;2023-02-28T12:38:05;102478.34;;;11.01;40.96
2549;BME280;1284;53.520;10.248;2023-02-28T12:40:44;102477.03;;;10.90;42.27
2549;BME280;1284;53.520;10.248;2023-02-28T12:43:13;102479.28;;;10.97;42.61
2549;BME280;1284;53.520;10.248;2023-02-28T12:46:34;102467.84;;;11.00;42.30
2549;BME280;1284;53.520;10.248;2023-02-28T12:48:42;102463.19;;;11.31;41.54
2549;BME280;1284;53.520;10.248;2023-02-28T12:51:09;102457.28;;;11.03;41.64
2549;BME280;1284;53.520;10.248;2023-02-28T12:54:04;102458.75;;;11.35;41.86
2549;BME280;1284;53.520;10.248;2023-02-28T13:07:39;102431.22;;;11.81;41.57
2549;BME280;1284;53.520;10.248;2023-02-28T13:10:07;102424.50;;;11.61;40.87
2549;BME280;1284;53.520;10.248;2023-02-28T13:12:36;102422.28;;;11.71;42.12
2549;BME280;1284;53.520;10.248;2023-02-28T13:15:18;102413.56;;;11.83;41.90
2549;BME280;1284;53.520;10.248;2023-02-28T13:17:51;102420.53;;;11.93;41.61
2549;BME280;1284;53.520;10.248;2023-02-28T13:22:46;102410.50;;;12.10;40.21
2549;BME280;1284;53.520;10.248;2023-02-28T13:35:45;102419.50;;;12.31;39.56
2549;BME280;1284;53.520;10.248;2023-02-28T13:38:33;102419.28;;;12.53;40.00
2549;BME280;1284;53.520;10.248;2023-02-28T13:41:40;102429.41;;;12.56;39.75
2549;BME280;1284;53.520;10.248;2023-02-28T13:46:35;102429.72;;;12.63;39.22
2549;BME280;1284;53.520;10.248;2023-02-28T14:06:16;102424.53;;;12.50;39.05
2549;BME280;1284;53.520;10.248;2023-02-28T14:08:56;102423.06;;;12.52;38.95
2549;BME280;1284;53.520;10.248;2023-02-28T14:11:35;102417.09;;;12.38;39.22
2549;BME280;1284;53.520;10.248;2023-02-28T14:14:02;102428.34;;;12.49;40.18
2549;BME280;1284;53.520;10.248;2023-02-28T14:16:47;102427.91;;;12.38;39.02
2549;BME280;1284;53.520;10.248;2023-02-28T14:19:35;102427.97;;;12.04;39.54
2549;BME280;1284;53.520;10.248;2023-02-28T14:25:08;102423.94;;;12.27;39.64
2549;BME280;1284;53.520;10.248;2023-02-28T14:30:32;102426.16;;;12.42;40.25
2549;BME280;1284;53.520;10.248;2023-02-28T14:33:18;102421.22;;;12.44;40.69
2549;BME280;1284;53.520;10.248;2023-02-28T14:38:24;102437.31;;;12.24;39.47
2549;BME280;1284;53.520;10.248;2023-02-28T14:40:52;102425.81;;;12.44;39.88
2549;BME280;1284;53.520;10.248;2023-02-28T14:43:25;102427.13;;;12.38;39.44
2549;BME280;1284;53.520;10.248;2023-02-28T14:45:52;102434.28;;;12.25;39.82
2549;BME280;1284;53.520;10.248;2023-02-28T14:48:20;102422.50;;;12.38;38.94
2549;BME280;1284;53.520;10.248;2023-02-28T14:50:53;102423.78;;;12.70;38.84
2549;BME280;1284;53.520;10.248;2023-02-28T14:53:21;102432.13;;;12.56;38.59
2549;BME280;1284;53.520;10.248;2023-02-28T14:55:48;102433.78;;;12.40;38.72
2549;BME280;1284;53.520;10.248;2023-02-28T14:58:28;102427.78;;;12.35;40.07
2549;BME280;1284;53.520;10.248;2023-02-28T15:01:01;102431.50;;;12.51;40.03
2549;BME280;1284;53.520;10.248;2023-02-28T15:03:35;102432.44;;;12.55;39.64
2549;BME280;1284;53.520;10.248;2023-02-28T15:06:04;102416.28;;;12.76;39.50
2549;BME280;1284;53.520;10.248;2023-02-28T15:08:31;102411.03;;;12.50;38.44
2549;BME280;1284;53.520;10.248;2023-02-28T15:11:16;102415.91;;;12.56;38.82
2549;BME280;1284;53.520;10.248;2023-02-28T15:13:49;102414.75;;;12.66;39.30
2549;BME280;1284;53.520;10.248;2023-02-28T15:18:52;102412.84;;;12.66;37.96
2549;BME280;1284;53.520;10.248;2023-02-28T15:21:23;102413.31;;;12.68;37.56
2549;BME280;1284;53.520;10.248;2023-02-28T15:23:56;102406.69;;;12.57;38.74
2549;BME280;1284;53.520;10.248;2023-02-28T15:26:28;102402.69;;;12.63;38.57
2549;BME280;1284;53.520;10.248;2023-02-28T15:29:05;102395.53;;;12.67;38.03
2549;BME280;1284;53.520;10.248;2023-02-28T15:34:04;102394.72;;;12.29;37.78
2549;BME280;1284;53.520;10.248;2023-02-28T15:36:31;102400.53;;;12.48;38.30
2549;BME280;1284;53.520;10.248;2023-02-28T15:38:59;102390.56;;;12.32;37.15
2549;BME280;1284;53.520;10.248;2023-02-28T15:41:37;102381.03;;;12.34;37.12
2549;BME280;1284;53.520;10.248;2023-02-28T15:44:26;102390.81;;;12.01;37.96
2549;BME280;1284;53.520;10.248;2023-02-28T15:47:11;102390.78;;;12.18;39.00
2549;BME280;1284;53.520;10.248;2023-02-28T15:49:45;102394.00;;;12.03;39.33